createdAt,value
2023-05-03T00:04:03.078Z,7.9
2023-05-03T00:09:13.331Z,7.7
2023-05-03T00:15:03.059Z,7.8
2023-05-03T00:20:03.422Z,7.7
2023-05-03T00:25:13.362Z,7.6
2023-05-03T00:31:03.110Z,7.6
2023-05-03T00:36:03.174Z,7.4
2023-05-03T00:41:13.570Z,7.4
2023-05-03T00:47:03.132Z,7.1
2023-05-03T00:52:13.340Z,7.2
2023-05-03T00:57:13.364Z,7.3
2023-05-03T01:03:03.181Z,7.3
2023-05-03T01:08:13.344Z,7.2
2023-05-03T01:13:13.345Z,7.2
2023-05-03T01:19:03.106Z,7
2023-05-03T01:24:03.077Z,6.9
2023-05-03T01:29:13.354Z,6.8
2023-05-03T01:34:13.346Z,6.9
2023-05-03T01:40:03.336Z,6.9
2023-05-03T01:45:13.349Z,6.7
2023-05-03T01:51:03.060Z,6.7
2023-05-03T01:56:03.072Z,6.8
2023-05-03T02:01:03.109Z,6.7
2023-05-03T02:06:03.117Z,6.7
2023-05-03T02:11:13.339Z,6.8
2023-05-03T02:16:13.368Z,6.8
2023-05-03T02:22:03.074Z,6.6
2023-05-03T02:27:13.369Z,6.7
2023-05-03T02:33:10.096Z,6.6
2023-05-03T02:38:13.368Z,6.5
2023-05-03T02:43:13.365Z,6.5
2023-05-03T02:49:03.074Z,6.1
2023-05-03T02:54:13.350Z,6.2
2023-05-03T03:00:03.198Z,6.3
2023-05-03T03:05:03.077Z,6
2023-05-03T03:10:13.360Z,6.1
2023-05-03T03:16:03.164Z,6.1
2023-05-03T03:21:03.079Z,6.2
2023-05-03T03:26:13.339Z,6.2
2023-05-03T03:31:13.402Z,6.1
2023-05-03T03:36:13.353Z,5.9
2023-05-03T03:42:03.119Z,5.9
2023-05-03T03:47:13.407Z,5.8
2023-05-03T03:52:13.359Z,5.9
2023-05-03T03:57:13.368Z,5.9
2023-05-03T04:03:05.187Z,5.7
2023-05-03T04:08:13.394Z,5.5
2023-05-03T04:14:03.089Z,5.6
2023-05-03T04:19:03.065Z,5.7
2023-05-03T04:24:13.347Z,5.9
2023-05-03T04:30:03.431Z,5.8
2023-05-03T04:35:13.357Z,5.7
2023-05-03T04:41:03.063Z,5.8
2023-05-03T04:57:03.107Z,6
2023-05-03T05:02:13.373Z,5.9
2023-05-03T05:08:03.070Z,6.1
2023-05-03T05:13:13.365Z,6.2
2023-05-03T05:18:13.403Z,6.5
2023-05-03T05:24:03.084Z,6.9
2023-05-03T05:29:13.348Z,7.4
2023-05-03T05:34:13.347Z,8.2
2023-05-03T05:39:13.361Z,9
2023-05-03T05:45:03.046Z,9
2023-05-03T05:50:05.858Z,8.6
2023-05-03T05:55:13.359Z,8.4
2023-05-03T06:01:03.059Z,8
2023-05-03T06:06:13.350Z,6.4
2023-05-03T06:11:13.366Z,7.9
2023-05-03T06:17:03.189Z,8.2
2023-05-03T06:22:03.118Z,7.6
2023-05-03T06:27:03.093Z,6.4
2023-05-03T06:32:13.350Z,7.7
2023-05-03T06:37:13.373Z,7
2023-05-03T06:42:13.375Z,7.2
2023-05-03T06:48:03.149Z,6.6
2023-05-03T06:53:03.091Z,6.7
2023-05-03T06:58:13.399Z,6.7
2023-05-03T07:04:03.120Z,7
2023-05-03T07:09:03.142Z,6.1
2023-05-03T07:14:13.351Z,4.8
2023-05-03T07:19:13.377Z,4.1
2023-05-03T07:24:13.386Z,6.1
2023-05-03T07:29:13.389Z,6.8
2023-05-03T07:34:13.410Z,6.9
2023-05-03T07:39:13.392Z,6.1
2023-05-03T07:45:03.148Z,4.3
2023-05-03T07:50:03.393Z,4.6
2023-05-03T07:55:13.369Z,3.9
2023-05-03T08:00:13.400Z,5.4
2023-05-03T08:06:03.157Z,5.5
2023-05-03T08:11:13.360Z,5.5
2023-05-03T08:16:13.425Z,5.9
2023-05-03T08:21:13.422Z,6.5
2023-05-03T08:27:03.107Z,6.1
2023-05-03T08:32:03.127Z,5.1
2023-05-03T08:37:13.375Z,5.6
2023-05-03T08:42:13.393Z,4.6
2023-05-03T08:48:03.127Z,5.3
2023-05-03T08:53:03.114Z,4.5
2023-05-03T08:58:03.123Z,5.5
2023-05-03T09:03:13.539Z,5.3
2023-05-03T09:08:13.422Z,4.9
2023-05-03T09:14:03.095Z,5.3
2023-05-03T09:19:03.123Z,5.4
2023-05-03T09:24:13.434Z,6
2023-05-03T09:30:03.344Z,7.1
2023-05-03T09:35:13.415Z,6
2023-05-03T09:40:13.410Z,5.5
2023-05-03T09:46:03.204Z,6.7
2023-05-03T09:51:13.444Z,6.3
2023-05-03T09:56:13.472Z,6.2
2023-05-03T10:02:03.172Z,5
2023-05-03T10:07:13.477Z,6.2
2023-05-03T10:13:03.149Z,7.2
2023-05-03T10:18:13.636Z,5.6
2023-05-03T10:29:03.403Z,6.8
2023-05-03T10:34:13.459Z,7
2023-05-03T10:40:03.424Z,6.8
2023-05-03T10:45:13.431Z,6
2023-05-03T10:51:03.152Z,5.5
2023-05-03T10:56:13.452Z,5.8
2023-05-03T11:02:03.586Z,6.6
2023-05-03T11:07:03.153Z,6.3
2023-05-03T11:12:13.419Z,6.5
2023-05-03T11:17:13.516Z,6.3
2023-05-03T11:22:13.639Z,6.4
2023-05-03T11:28:03.465Z,4.9
2023-05-03T11:33:13.485Z,4.5
2023-05-03T11:39:03.207Z,6
2023-05-03T11:44:17.849Z,6.5
2023-05-03T11:49:13.459Z,5.6
2023-05-03T11:55:03.479Z,6.3
2023-05-03T12:00:03.156Z,6.6
2023-05-03T12:15:16.054Z,4.7
2023-05-03T12:20:51.187Z,4.6
2023-05-03T12:26:05.239Z,4.2
2023-05-03T12:31:05.186Z,4.9
2023-05-03T12:36:14.902Z,3.7
2023-05-03T12:41:15.888Z,3.1
2023-05-03T12:47:03.759Z,3.6
2023-05-03T12:57:15.819Z,4.4
2023-05-03T13:08:09.353Z,4.6
2023-05-03T13:13:13.447Z,5.8
2023-05-03T13:18:13.519Z,6.5
2023-05-03T13:24:03.195Z,6.6
2023-05-03T13:29:03.214Z,7
2023-05-03T13:34:13.495Z,5.7
2023-05-03T13:39:13.511Z,6.2
2023-05-03T13:45:03.206Z,6.1
2023-05-03T13:50:13.478Z,5.9
2023-05-03T13:55:13.488Z,6
2023-05-03T14:00:13.482Z,6.4
2023-05-03T14:06:03.301Z,6
2023-05-03T14:11:13.649Z,6.8
2023-05-03T14:17:03.324Z,5.9
2023-05-03T14:22:03.248Z,6.7
2023-05-03T14:27:13.501Z,7.4
2023-05-03T14:33:03.296Z,6.8
2023-05-03T14:38:03.242Z,6.5
2023-05-03T14:43:13.700Z,6.7
2023-05-03T14:48:13.488Z,6.5
2023-05-03T14:53:13.508Z,6.7
2023-05-03T14:59:03.235Z,6.3
2023-05-03T15:04:03.255Z,7.1
2023-05-03T15:09:13.512Z,6.7
2023-05-03T15:15:03.227Z,6.3
2023-05-03T15:20:13.888Z,6.2
2023-05-03T15:31:13.540Z,6.6
2023-05-03T15:36:13.518Z,5.3
2023-05-03T15:41:13.521Z,6.4
2023-05-03T15:47:03.236Z,6.5
2023-05-03T15:52:13.497Z,3.8
2023-05-03T15:57:13.769Z,4.6
2023-05-03T16:02:13.531Z,3.9
2023-05-03T16:07:13.574Z,5.7
2023-05-03T16:13:03.340Z,3.8
2023-05-03T16:18:13.610Z,5.9
2023-05-03T16:24:03.277Z,6.4
2023-05-03T16:29:03.298Z,6.2
2023-05-03T16:34:13.520Z,3.6
2023-05-03T16:39:13.527Z,3.9
2023-05-03T16:44:13.540Z,3.6
2023-05-03T16:49:13.805Z,2.6
2023-05-03T16:55:03.279Z,2.4
2023-05-03T17:00:13.544Z,2.5
2023-05-03T17:06:04.067Z,2.6
2023-05-03T17:11:03.286Z,2.6
2023-05-03T17:21:03.414Z,3.1
2023-05-03T17:26:13.529Z,3.8
2023-05-03T17:31:13.613Z,3
2023-05-03T17:36:13.543Z,3.2
2023-05-03T17:42:03.300Z,2
2023-05-03T17:47:13.535Z,2.5
2023-05-03T17:53:03.283Z,3.2
2023-05-03T17:58:03.346Z,2.8
2023-05-03T18:03:13.624Z,3.5
2023-05-03T18:08:13.557Z,4.9
2023-05-03T18:14:03.294Z,5.5
2023-05-03T18:19:13.553Z,4.9
2023-05-03T18:24:13.541Z,5.2
2023-05-03T18:29:13.561Z,4.9
2023-05-03T18:35:03.578Z,4.2
2023-05-03T18:40:13.556Z,4.4
2023-05-03T18:46:03.343Z,5.5
2023-05-03T18:57:03.340Z,4.8
2023-05-03T19:02:03.359Z,4.6
2023-05-03T19:07:13.598Z,5
2023-05-03T19:13:03.429Z,5.1
2023-05-03T19:18:14.838Z,6.5
2023-05-03T19:24:03.352Z,6
2023-05-03T19:29:13.587Z,5.6
2023-05-03T19:35:03.351Z,6.3
2023-05-03T19:40:03.556Z,4.9
2023-05-03T19:45:13.541Z,5.8
2023-05-03T19:50:13.591Z,6
2023-05-03T19:55:13.578Z,5.9
2023-05-03T20:00:13.608Z,6.1
2023-05-03T20:06:03.364Z,5.8
2023-05-03T20:11:13.590Z,6.3
2023-05-03T20:16:13.641Z,6.3
2023-05-03T20:22:03.393Z,6
2023-05-03T20:27:13.594Z,5.8
2023-05-03T20:33:03.403Z,4.6
2023-05-03T20:38:13.581Z,4.6
2023-05-03T20:43:13.598Z,3.6
2023-05-03T20:49:03.309Z,3.9
2023-05-03T20:54:13.600Z,5.3
2023-05-03T21:00:03.516Z,6
2023-05-03T21:05:03.310Z,5.7
2023-05-03T21:10:13.594Z,4.3
2023-05-03T21:21:03.318Z,3.9
2023-05-03T21:26:13.605Z,4.6
2023-05-03T21:31:13.651Z,3.9
2023-05-03T21:36:13.629Z,3.8
2023-05-03T21:42:03.309Z,3.6
2023-05-03T21:47:03.345Z,4.6
2023-05-03T21:52:13.605Z,4.8
2023-05-03T21:58:03.286Z,3.7
2023-05-03T22:03:03.422Z,4.1
2023-05-03T22:08:03.332Z,4
2023-05-03T22:13:13.629Z,4.1
2023-05-03T22:18:13.601Z,3.7
2023-05-03T22:23:13.628Z,4
2023-05-03T22:29:03.311Z,4.4
2023-05-03T22:34:13.672Z,4.7
2023-05-03T22:39:13.634Z,4.3
2023-05-03T22:45:03.353Z,4.6
2023-05-03T22:50:13.594Z,4.4
2023-05-03T22:56:03.309Z,4.6
2023-05-03T23:01:03.336Z,4.7
2023-05-03T23:06:03.323Z,4.6
2023-05-03T23:11:13.618Z,4.8
2023-05-03T23:16:13.633Z,4.7
2023-05-03T23:21:13.629Z,4.7
2023-05-03T23:26:13.632Z,4.9
2023-05-03T23:32:03.405Z,5.6
2023-05-03T23:37:03.412Z,5.6
2023-05-03T23:42:13.621Z,5.1
2023-05-03T23:48:03.403Z,5.3
2023-05-03T23:53:13.580Z,5.3
2023-05-03T23:58:13.600Z,5.1
